Time;durP1;ratioP1;P1;durP2;ratioP2;P2;SDS_P1;SDS_P2;PMS_P1;PMS_P2;Temp;Humidity;BMP_temperature;BMP_pressure;BME280_temperature;BME280_humidity;BME280_pressure;Samples;Min_cycle;Max_cycle;Signal;HPM_P1;HPM_P2
2023/08/11 00:01:16;;;;;;;6.88;4.60;;;;;;;;;;4895143;29;20037;-60
2023/08/11 00:03:43;;;;;;;8.40;4.85;;;;;;;;;;4877665;29;20208;-61
2023/08/11 00:06:08;;;;;;;9.50;4.57;;;;;;;;;;4892765;29;20506;-60
2023/08/11 00:08:36;;;;;;;7.78;4.85;;;;;;;;;;4891678;29;20116;-61
2023/08/11 00:11:02;;;;;;;7.55;4.68;;;;;;;;;;4879068;29;20033;-59
2023/08/11 00:13:27;;;;;;;6.30;4.40;;;;;;;;;;4895305;29;20036;-61
2023/08/11 00:15:55;;;;;;;8.57;4.78;;;;;;;;;;4893832;29;20041;-59
2023/08/11 00:18:20;;;;;;;7.28;4.70;;;;;;;;;;4877410;29;20115;-59
2023/08/11 00:20:46;;;;;;;7.63;4.35;;;;;;;;;;4894051;29;20796;-59
2023/08/11 00:23:11;;;;;;;9.05;4.53;;;;;;;;;;4896221;29;20036;-59
2023/08/11 00:25:37;;;;;;;7.57;4.45;;;;;;;;;;4893521;29;20047;-60
2023/08/11 00:28:02;;;;;;;9.90;4.68;;;;;;;;;;4880311;29;20260;-59
2023/08/11 00:30:28;;;;;;;10.02;4.90;;;;;;;;;;4895839;29;20040;-61
2023/08/11 00:32:53;;;;;;;6.40;4.50;;;;;;;;;;4898176;29;20036;-61
2023/08/11 00:35:19;;;;;;;5.72;4.00;;;;;;;;;;4897203;29;20363;-60
2023/08/11 00:37:44;;;;;;;10.45;4.78;;;;;;;;;;4895672;29;20116;-60
2023/08/11 00:40:11;;;;;;;7.03;4.30;;;;;;;;;;4897876;29;20036;-60
2023/08/11 00:42:37;;;;;;;7.78;4.38;;;;;;;;;;4897025;29;20476;-62
2023/08/11 00:45:03;;;;;;;8.10;4.53;;;;;;;;;;4880825;29;20139;-61
2023/08/11 00:47:29;;;;;;;9.77;4.78;;;;;;;;;;4897864;29;20115;-60
2023/08/11 00:49:54;;;;;;;7.18;4.40;;;;;;;;;;4896766;29;20036;-62
2023/08/11 00:52:20;;;;;;;6.10;4.40;;;;;;;;;;4881811;29;20393;-60
2023/08/11 00:54:46;;;;;;;7.45;4.45;;;;;;;;;;4895990;29;20470;-60
2023/08/11 00:57:14;;;;;;;8.32;4.65;;;;;;;;;;4898930;29;20041;-60
2023/08/11 00:59:40;;;;;;;8.48;4.80;;;;;;;;;;4896302;29;20028;-60
2023/08/11 01:02:06;;;;;;;8.35;4.85;;;;;;;;;;4898377;29;20115;-60
2023/08/11 01:04:33;;;;;;;10.45;4.55;;;;;;;;;;4897624;29;20032;-61
2023/08/11 01:07:16;;;;;;;9.32;4.60;;;;;;;;;;4889343;29;20046;-60
2023/08/11 01:10:08;;;;;;;7.70;4.75;;;;;;;;;;4879696;29;20037;-60
2023/08/11 01:12:39;;;;;;;8.70;4.53;;;;;;;;;;4893647;29;20041;-61
2023/08/11 01:15:20;;;;;;;;;;;;;;;;;;4899229;29;20039;-60
2023/08/11 01:17:47;;;;;;;6.85;4.45;;;;;;;;;;4893629;29;19982;-60
2023/08/11 01:20:16;;;;;;;6.53;4.28;;;;;;;;;;4887143;29;20041;-60
2023/08/11 01:22:50;;;;;;;6.38;4.30;;;;;;;;;;4890437;29;20037;-60
2023/08/11 01:25:15;;;;;;;11.02;4.57;;;;;;;;;;4879582;29;20029;-60
2023/08/11 01:28:10;;;;;;;8.98;4.88;;;;;;;;;;4885820;29;20450;-60
2023/08/11 01:30:36;;;;;;;8.75;4.93;;;;;;;;;;4876276;29;20064;-61
2023/08/11 01:33:03;;;;;;;7.85;4.70;;;;;;;;;;4891359;29;20119;-60
2023/08/11 01:35:28;;;;;;;7.20;4.28;;;;;;;;;;4881778;29;20381;-60
2023/08/11 01:37:53;;;;;;;8.23;5.15;;;;;;;;;;4894605;29;20044;-60
2023/08/11 01:40:19;;;;;;;6.93;5.10;;;;;;;;;;4890478;29;20036;-60
2023/08/11 01:42:45;;;;;;;9.05;5.35;;;;;;;;;;4896381;29;20035;-60
2023/08/11 01:45:13;;;;;;;12.55;5.07;;;;;;;;;;4896980;29;20036;-60
2023/08/11 01:47:44;;;;;;;8.68;4.90;;;;;;;;;;4895279;29;20028;-60
2023/08/11 01:50:11;;;;;;;7.15;4.80;;;;;;;;;;4885767;29;20032;-60
2023/08/11 01:52:41;;;;;;;7.75;4.68;;;;;;;;;;4886742;29;20127;-61
2023/08/11 01:55:09;;;;;;;6.82;4.68;;;;;;;;;;4891648;29;20044;-60
2023/08/11 01:57:35;;;;;;;7.53;5.07;;;;;;;;;;4890835;29;20055;-61
2023/08/11 02:00:00;;;;;;;9.25;5.00;;;;;;;;;;4891668;29;20040;-60
2023/08/11 02:02:26;;;;;;;8.70;4.75;;;;;;;;;;4896974;29;20029;-60
2023/08/11 02:04:51;;;;;;;8.18;5.10;;;;;;;;;;4895320;29;20055;-60
2023/08/11 02:07:17;;;;;;;8.63;5.10;;;;;;;;;;4896261;29;20083;-60
2023/08/11 02:09:42;;;;;;;9.27;5.32;;;;;;;;;;4895988;29;20041;-60
2023/08/11 02:12:08;;;;;;;9.20;5.28;;;;;;;;;;4894448;29;20029;-60
2023/08/11 02:14:33;;;;;;;8.05;4.97;;;;;;;;;;4897852;29;20041;-60
2023/08/11 02:16:59;;;;;;;10.07;4.75;;;;;;;;;;4892950;29;20040;-60
2023/08/11 02:19:24;;;;;;;9.45;5.10;;;;;;;;;;4894715;29;20410;-60
2023/08/11 02:21:50;;;;;;;7.40;5.10;;;;;;;;;;4896865;29;20033;-60
2023/08/11 02:24:15;;;;;;;8.52;5.53;;;;;;;;;;4896644;29;20044;-60
2023/08/11 02:26:41;;;;;;;9.38;5.32;;;;;;;;;;4888183;29;20044;-61
2023/08/11 02:29:07;;;;;;;10.13;5.78;;;;;;;;;;4869812;29;20399;-60
2023/08/11 02:31:32;;;;;;;8.90;5.88;;;;;;;;;;4891571;29;20474;-61
2023/08/11 02:33:58;;;;;;;11.55;5.88;;;;;;;;;;4892845;29;20039;-61
2023/08/11 02:36:24;;;;;;;10.70;5.88;;;;;;;;;;4897070;29;20044;-60
2023/08/11 02:38:50;;;;;;;10.95;6.10;;;;;;;;;;4879706;29;20525;-60
2023/08/11 02:41:16;;;;;;;11.40;6.10;;;;;;;;;;4897438;29;20028;-60
2023/08/11 02:43:41;;;;;;;7.93;6.10;;;;;;;;;;4896538;29;20032;-61
2023/08/11 02:46:07;;;;;;;10.85;6.32;;;;;;;;;;4896488;29;20036;-61
2023/08/11 02:48:38;;;;;;;10.55;6.00;;;;;;;;;;4896029;29;20044;-60
2023/08/11 02:51:03;;;;;;;;;;;;;;;;;;4896622;29;20413;-60
2023/08/11 02:53:28;;;;;;;9.93;6.13;;;;;;;;;;4895262;29;19947;-60
2023/08/11 02:55:54;;;;;;;8.85;6.10;;;;;;;;;;4896306;29;20050;-60
2023/08/11 02:58:22;;;;;;;9.70;6.35;;;;;;;;;;4896695;29;20055;-61
2023/08/11 03:00:49;;;;;;;9.25;6.03;;;;;;;;;;4895657;29;20131;-61
2023/08/11 03:03:17;;;;;;;9.32;6.47;;;;;;;;;;4895809;29;20036;-60
2023/08/11 03:05:45;;;;;;;11.70;6.47;;;;;;;;;;4895927;29;20036;-60
2023/08/11 03:08:12;;;;;;;11.00;6.80;;;;;;;;;;4896550;29;20077;-60
2023/08/11 03:10:37;;;;;;;10.68;6.13;;;;;;;;;;4894944;29;20044;-61
2023/08/11 03:13:03;;;;;;;9.77;6.47;;;;;;;;;;4896563;29;20096;-60
2023/08/11 03:15:28;;;;;;;10.98;6.80;;;;;;;;;;4895247;29;20036;-60
2023/08/11 03:17:54;;;;;;;10.55;6.18;;;;;;;;;;4895793;29;20036;-60
2023/08/11 03:20:20;;;;;;;10.02;6.03;;;;;;;;;;4896872;29;20397;-60
2023/08/11 03:22:45;;;;;;;10.57;6.50;;;;;;;;;;4895225;29;20060;-60
2023/08/11 03:25:11;;;;;;;12.07;6.63;;;;;;;;;;4896363;29;20104;-60
2023/08/11 03:27:40;;;;;;;11.43;6.68;;;;;;;;;;4892750;29;20037;-60
2023/08/11 03:30:07;;;;;;;9.98;6.20;;;;;;;;;;4894523;29;20040;-60
2023/08/11 03:32:32;;;;;;;10.30;6.57;;;;;;;;;;4895339;29;20091;-61
2023/08/11 03:34:57;;;;;;;11.18;6.75;;;;;;;;;;4889577;29;20036;-60
2023/08/11 03:37:23;;;;;;;10.90;7.20;;;;;;;;;;4894871;29;20044;-60
2023/08/11 03:39:48;;;;;;;12.25;6.90;;;;;;;;;;4895718;29;20458;-60
2023/08/11 03:42:13;;;;;;;9.95;6.57;;;;;;;;;;4895632;29;20039;-60
2023/08/11 03:44:39;;;;;;;12.90;6.28;;;;;;;;;;4895416;29;20115;-60
2023/08/11 03:47:05;;;;;;;9.45;6.40;;;;;;;;;;4892578;29;20093;-60
2023/08/11 03:49:31;;;;;;;9.27;6.10;;;;;;;;;;4894549;29;20036;-60
2023/08/11 03:51:57;;;;;;;12.13;6.72;;;;;;;;;;4893448;29;20035;-59
2023/08/11 03:54:22;;;;;;;8.95;6.22;;;;;;;;;;4895355;29;20115;-59
2023/08/11 03:56:48;;;;;;;9.95;6.43;;;;;;;;;;4897061;29;20052;-59
2023/08/11 03:59:13;;;;;;;14.02;6.30;;;;;;;;;;4896485;29;20062;-60
2023/08/11 04:01:38;;;;;;;10.25;5.95;;;;;;;;;;4879737;29;20057;-61
2023/08/11 04:04:04;;;;;;;9.57;5.95;;;;;;;;;;4896888;29;20036;-61
2023/08/11 04:06:32;;;;;;;10.48;6.50;;;;;;;;;;4914514;29;20100;-61
2023/08/11 04:08:59;;;;;;;8.80;5.95;;;;;;;;;;4917012;29;20047;-61
2023/08/11 04:11:25;;;;;;;9.65;6.00;;;;;;;;;;4910286;29;20040;-61
2023/08/11 04:13:50;;;;;;;9.55;6.35;;;;;;;;;;4913566;29;20290;-61
2023/08/11 04:16:16;;;;;;;10.48;6.32;;;;;;;;;;4907894;29;20497;-61
2023/08/11 04:18:41;;;;;;;9.90;6.18;;;;;;;;;;4897013;29;20039;-61
2023/08/11 04:21:07;;;;;;;13.30;6.57;;;;;;;;;;4899131;29;20044;-60
2023/08/11 04:23:32;;;;;;;13.68;6.72;;;;;;;;;;4895735;29;20066;-60
2023/08/11 04:25:58;;;;;;;12.70;6.65;;;;;;;;;;4915339;29;20036;-61
2023/08/11 04:28:23;;;;;;;10.52;5.95;;;;;;;;;;4907339;29;20043;-61
2023/08/11 04:30:49;;;;;;;10.13;6.32;;;;;;;;;;4917366;29;20036;-60
2023/08/11 04:33:15;;;;;;;9.88;5.70;;;;;;;;;;4899781;29;20040;-60
2023/08/11 04:35:41;;;;;;;10.82;6.50;;;;;;;;;;4911133;29;20504;-60
2023/08/11 04:38:07;;;;;;;10.77;6.20;;;;;;;;;;4897621;29;20047;-60
2023/08/11 04:40:33;;;;;;;11.00;6.03;;;;;;;;;;4906691;29;20028;-60
2023/08/11 04:42:59;;;;;;;9.30;6.13;;;;;;;;;;4903829;29;20115;-60
2023/08/11 04:45:26;;;;;;;10.65;6.43;;;;;;;;;;4895412;29;20176;-61
2023/08/11 04:47:51;;;;;;;10.25;5.82;;;;;;;;;;4905065;29;20044;-60
2023/08/11 04:50:17;;;;;;;9.40;6.47;;;;;;;;;;4896041;29;20051;-60
2023/08/11 04:52:42;;;;;;;8.95;5.95;;;;;;;;;;4897474;29;20196;-60
2023/08/11 04:55:08;;;;;;;9.07;5.72;;;;;;;;;;4904475;29;20051;-60
2023/08/11 04:57:34;;;;;;;11.95;6.63;;;;;;;;;;4915296;29;20058;-61
2023/08/11 05:00:00;;;;;;;10.23;6.32;;;;;;;;;;4917464;29;20119;-59
2023/08/11 05:02:26;;;;;;;11.05;5.60;;;;;;;;;;4904208;29;20167;-60
2023/08/11 05:04:52;;;;;;;9.35;6.00;;;;;;;;;;4905972;29;20092;-60
2023/08/11 05:07:17;;;;;;;12.38;5.90;;;;;;;;;;4908904;29;20565;-60
2023/08/11 05:09:43;;;;;;;13.00;6.20;;;;;;;;;;4897857;29;20390;-59
2023/08/11 05:12:10;;;;;;;8.25;5.47;;;;;;;;;;4894913;29;20040;-59
2023/08/11 05:14:35;;;;;;;10.70;5.93;;;;;;;;;;4897242;29;20060;-60
2023/08/11 05:17:00;;;;;;;10.25;6.07;;;;;;;;;;4910511;29;20072;-60
2023/08/11 05:19:26;;;;;;;15.65;6.05;;;;;;;;;;4896227;29;20032;-67
2023/08/11 05:21:52;;;;;;;9.50;5.68;;;;;;;;;;4898083;29;20060;-68
2023/08/11 05:24:17;;;;;;;8.77;5.32;;;;;;;;;;4898797;29;20036;-68
2023/08/11 05:26:43;;;;;;;8.45;5.32;;;;;;;;;;4893661;29;20079;-69
2023/08/11 05:29:08;;;;;;;10.73;5.80;;;;;;;;;;4897952;29;20025;-68
2023/08/11 05:31:33;;;;;;;7.22;5.13;;;;;;;;;;4898901;29;20462;-68
2023/08/11 05:33:59;;;;;;;11.18;5.70;;;;;;;;;;4893515;29;20036;-70
2023/08/11 05:36:24;;;;;;;10.10;5.40;;;;;;;;;;4862053;29;20434;-69
2023/08/11 05:38:50;;;;;;;9.05;5.53;;;;;;;;;;4897595;29;20054;-73
2023/08/11 05:41:16;;;;;;;11.38;5.82;;;;;;;;;;4897815;29;20360;-70
2023/08/11 05:43:41;;;;;;;7.78;5.20;;;;;;;;;;4897521;29;20602;-69
2023/08/11 05:46:07;;;;;;;8.73;5.45;;;;;;;;;;4897556;29;20109;-70
2023/08/11 05:48:35;;;;;;;8.38;5.05;;;;;;;;;;4895785;29;20041;-71
2023/08/11 05:51:02;;;;;;;9.02;5.50;;;;;;;;;;4897862;29;20072;-70
2023/08/11 05:53:27;;;;;;;9.57;5.22;;;;;;;;;;4897688;29;20043;-70
2023/08/11 05:55:52;;;;;;;8.75;5.70;;;;;;;;;;4897525;29;20033;-70
2023/08/11 05:58:18;;;;;;;7.70;5.25;;;;;;;;;;4898438;29;20049;-70
2023/08/11 06:00:43;;;;;;;10.82;5.25;;;;;;;;;;4898205;29;20080;-69
2023/08/11 06:03:09;;;;;;;8.48;5.22;;;;;;;;;;4896363;29;20509;-69
2023/08/11 06:05:34;;;;;;;8.60;5.32;;;;;;;;;;4897765;29;20064;-68
2023/08/11 06:07:59;;;;;;;9.32;5.13;;;;;;;;;;4896767;29;20039;-70
2023/08/11 06:10:26;;;;;;;8.43;5.00;;;;;;;;;;4897443;29;20036;-68
2023/08/11 06:12:52;;;;;;;8.40;4.55;;;;;;;;;;4894747;29;20044;-72
2023/08/11 06:15:17;;;;;;;8.45;4.72;;;;;;;;;;4898110;29;20354;-67
2023/08/11 06:17:45;;;;;;;10.02;4.82;;;;;;;;;;4895994;29;20119;-68
2023/08/11 06:20:12;;;;;;;8.63;4.60;;;;;;;;;;4878059;29;20037;-67
2023/08/11 06:22:38;;;;;;;8.02;4.75;;;;;;;;;;4883347;29;20047;-66
2023/08/11 06:25:05;;;;;;;9.65;4.47;;;;;;;;;;4894992;29;20457;-66
2023/08/11 06:27:31;;;;;;;7.45;4.32;;;;;;;;;;4894106;29;20124;-69
2023/08/11 06:29:56;;;;;;;6.55;4.07;;;;;;;;;;4895533;29;20115;-69
2023/08/11 06:32:22;;;;;;;6.90;3.90;;;;;;;;;;4896230;29;20036;-68
2023/08/11 06:34:47;;;;;;;5.43;3.42;;;;;;;;;;4897389;29;20060;-69
2023/08/11 06:37:12;;;;;;;8.05;3.70;;;;;;;;;;4895303;29;20386;-70
2023/08/11 06:39:38;;;;;;;9.20;3.40;;;;;;;;;;4897526;29;20061;-69
2023/08/11 06:42:03;;;;;;;6.97;3.30;;;;;;;;;;4896559;29;20118;-69
2023/08/11 06:44:29;;;;;;;8.10;3.20;;;;;;;;;;4880493;29;20037;-66
2023/08/11 06:46:54;;;;;;;6.68;3.00;;;;;;;;;;4893166;29;20478;-68
2023/08/11 06:49:19;;;;;;;11.02;3.53;;;;;;;;;;4895639;29;20029;-67
2023/08/11 06:51:45;;;;;;;7.32;3.47;;;;;;;;;;4897388;29;20107;-68
2023/08/11 06:54:10;;;;;;;7.22;3.55;;;;;;;;;;4895750;29;20059;-69
2023/08/11 06:56:36;;;;;;;6.40;3.10;;;;;;;;;;4896834;29;20111;-68
2023/08/11 06:59:01;;;;;;;10.77;3.50;;;;;;;;;;4895380;29;20088;-66
2023/08/11 07:01:26;;;;;;;7.95;3.38;;;;;;;;;;4896925;29;20079;-69
2023/08/11 07:03:55;;;;;;;7.70;3.17;;;;;;;;;;4896648;29;20063;-69
2023/08/11 07:06:20;;;;;;;5.40;3.15;;;;;;;;;;4896756;29;20041;-66
2023/08/11 07:08:45;;;;;;;13.55;3.40;;;;;;;;;;4895096;29;20083;-70
2023/08/11 07:11:11;;;;;;;9.32;3.53;;;;;;;;;;4895043;29;20115;-68
2023/08/11 07:13:39;;;;;;;8.73;3.50;;;;;;;;;;4879883;29;20036;-69
2023/08/11 07:16:04;;;;;;;8.20;3.20;;;;;;;;;;4896296;29;20087;-68
2023/08/11 07:18:29;;;;;;;7.28;3.58;;;;;;;;;;4896321;29;20032;-68
2023/08/11 07:20:55;;;;;;;9.25;3.90;;;;;;;;;;4878344;29;20393;-73
2023/08/11 07:23:20;;;;;;;9.30;3.60;;;;;;;;;;4896944;29;20037;-68
2023/08/11 07:25:45;;;;;;;8.38;3.40;;;;;;;;;;4895785;29;20168;-68
2023/08/11 07:28:11;;;;;;;8.02;3.50;;;;;;;;;;4877465;29;20494;-69
2023/08/11 07:30:37;;;;;;;7.28;3.60;;;;;;;;;;4896566;29;20478;-69
2023/08/11 07:33:03;;;;;;;7.05;3.17;;;;;;;;;;4896049;29;20094;-68
2023/08/11 07:35:29;;;;;;;7.20;3.67;;;;;;;;;;4895170;29;20032;-68
2023/08/11 07:37:55;;;;;;;8.00;3.38;;;;;;;;;;4895973;29;20064;-73
2023/08/11 07:40:21;;;;;;;5.68;3.47;;;;;;;;;;4896367;29;20040;-70
2023/08/11 07:42:46;;;;;;;6.10;3.22;;;;;;;;;;4893263;29;20369;-69
2023/08/11 07:45:12;;;;;;;6.70;3.55;;;;;;;;;;4895252;29;20091;-68
2023/08/11 07:47:38;;;;;;;7.13;3.50;;;;;;;;;;4895070;29;20446;-72
2023/08/11 07:50:04;;;;;;;7.20;3.22;;;;;;;;;;4894348;29;20108;-67
2023/08/11 07:52:29;;;;;;;6.20;2.97;;;;;;;;;;4896912;29;20096;-69
2023/08/11 07:54:55;;;;;;;9.20;3.25;;;;;;;;;;4893995;29;20063;-73
2023/08/11 07:57:20;;;;;;;5.88;2.90;;;;;;;;;;4878882;29;20060;-68
2023/08/11 07:59:46;;;;;;;6.82;3.10;;;;;;;;;;4896726;29;20032;-69
2023/08/11 08:02:12;;;;;;;5.75;3.00;;;;;;;;;;4895559;29;20390;-71
2023/08/11 08:04:38;;;;;;;9.80;3.17;;;;;;;;;;4896625;29;20224;-65
2023/08/11 08:07:04;;;;;;;5.60;3.10;;;;;;;;;;4895592;29;20531;-73
2023/08/11 08:09:33;;;;;;;5.10;3.33;;;;;;;;;;4873912;29;20132;-65
2023/08/11 08:11:59;;;;;;;8.07;3.00;;;;;;;;;;4894661;29;20040;-71
2023/08/11 08:14:25;;;;;;;5.47;2.95;;;;;;;;;;4895329;29;20040;-69
2023/08/11 08:16:50;;;;;;;6.18;3.05;;;;;;;;;;4896054;29;20401;-70
2023/08/11 08:19:17;;;;;;;7.38;3.05;;;;;;;;;;4895290;29;20095;-71
2023/08/11 08:21:42;;;;;;;6.55;3.08;;;;;;;;;;4896258;29;20040;-69
2023/08/11 08:24:08;;;;;;;7.25;3.00;;;;;;;;;;4895595;29;20044;-69
2023/08/11 08:26:35;;;;;;;6.47;3.03;;;;;;;;;;4896192;29;20106;-69
2023/08/11 08:29:01;;;;;;;5.63;2.78;;;;;;;;;;4890121;29;20450;-70
2023/08/11 08:31:27;;;;;;;6.75;2.80;;;;;;;;;;4894446;29;20040;-69
2023/08/11 08:33:53;;;;;;;7.95;3.22;;;;;;;;;;4896173;29;20064;-69
2023/08/11 08:36:19;;;;;;;6.78;3.15;;;;;;;;;;4895403;29;20092;-68
2023/08/11 08:38:44;;;;;;;9.30;3.17;;;;;;;;;;4895103;29;20542;-70
2023/08/11 08:41:10;;;;;;;9.18;3.30;;;;;;;;;;4893903;29;20043;-70
2023/08/11 08:43:36;;;;;;;6.35;2.92;;;;;;;;;;4896305;29;20466;-69
2023/08/11 08:46:06;;;;;;;6.97;2.90;;;;;;;;;;4895146;29;20084;-70
2023/08/11 08:48:45;;;;;;;6.35;3.00;;;;;;;;;;4895928;29;20036;-72
2023/08/11 08:51:10;;;;;;;5.28;2.85;;;;;;;;;;4898789;29;20111;-70
2023/08/11 08:53:36;;;;;;;6.70;2.90;;;;;;;;;;4882669;29;20128;-71
2023/08/11 08:56:05;;;;;;;5.65;2.75;;;;;;;;;;4897799;29;20059;-71
2023/08/11 08:58:31;;;;;;;10.43;3.30;;;;;;;;;;4899291;29;20082;-67
2023/08/11 09:01:01;;;;;;;6.22;2.47;;;;;;;;;;4895687;29;20079;-74
2023/08/11 09:03:30;;;;;;;7.40;2.80;;;;;;;;;;4898333;29;20041;-70
2023/08/11 09:05:57;;;;;;;5.63;3.00;;;;;;;;;;4899362;29;20040;-69
2023/08/11 09:08:23;;;;;;;6.28;2.70;;;;;;;;;;4898075;29;20041;-72
2023/08/11 09:10:48;;;;;;;6.13;2.75;;;;;;;;;;4897529;29;20036;-69
2023/08/11 09:13:15;;;;;;;7.20;3.13;;;;;;;;;;4897775;29;20032;-71
2023/08/11 09:15:41;;;;;;;4.78;2.60;;;;;;;;;;4898679;29;20036;-70
2023/08/11 09:18:07;;;;;;;5.97;2.85;;;;;;;;;;4881461;29;20048;-70
2023/08/11 09:20:35;;;;;;;7.90;2.90;;;;;;;;;;4898651;29;20033;-68
2023/08/11 09:23:01;;;;;;;4.45;2.70;;;;;;;;;;4898168;29;20039;-68
2023/08/11 09:25:27;;;;;;;4.63;2.50;;;;;;;;;;4878525;29;20024;-67
2023/08/11 09:27:53;;;;;;;6.95;2.70;;;;;;;;;;4897797;29;20040;-71
2023/08/11 09:30:19;;;;;;;4.80;2.70;;;;;;;;;;4898086;29;20044;-70
2023/08/11 09:32:49;;;;;;;6.45;2.78;;;;;;;;;;4897100;29;20055;-71
2023/08/11 09:35:14;;;;;;;5.68;2.83;;;;;;;;;;4862377;29;20041;-70
2023/08/11 09:37:43;;;;;;;7.05;2.90;;;;;;;;;;4890058;29;20056;-69
2023/08/11 09:40:10;;;;;;;7.35;2.97;;;;;;;;;;4898555;29;20136;-69
2023/08/11 09:42:38;;;;;;;4.85;2.60;;;;;;;;;;4897852;29;20059;-69
2023/08/11 09:45:04;;;;;;;4.50;2.83;;;;;;;;;;4896140;29;20033;-71
2023/08/11 09:47:29;;;;;;;6.75;3.05;;;;;;;;;;4898706;29;20043;-71
2023/08/11 09:49:55;;;;;;;4.85;2.60;;;;;;;;;;4898450;29;20036;-69
2023/08/11 09:52:21;;;;;;;8.30;2.92;;;;;;;;;;4896513;29;20037;-69
2023/08/11 09:54:49;;;;;;;4.82;2.80;;;;;;;;;;4897665;29;20080;-69
2023/08/11 09:57:18;;;;;;;5.03;2.78;;;;;;;;;;4897279;29;20143;-69
2023/08/11 09:59:46;;;;;;;4.93;2.67;;;;;;;;;;4895453;29;20046;-69
2023/08/11 10:02:17;;;;;;;5.72;2.50;;;;;;;;;;4896525;29;20036;-70
2023/08/11 10:04:48;;;;;;;5.43;2.58;;;;;;;;;;4880812;29;20028;-69
2023/08/11 10:07:17;;;;;;;5.88;2.83;;;;;;;;;;4896475;29;20033;-68
2023/08/11 10:09:44;;;;;;;6.70;2.83;;;;;;;;;;4895757;29;20111;-65
2023/08/11 10:12:10;;;;;;;6.00;2.88;;;;;;;;;;4880406;29;20143;-70
2023/08/11 10:14:37;;;;;;;5.65;2.88;;;;;;;;;;4897224;29;20115;-67
2023/08/11 10:17:03;;;;;;;5.57;2.70;;;;;;;;;;4894518;29;20044;-70
2023/08/11 10:19:30;;;;;;;5.43;2.60;;;;;;;;;;4897563;29;20092;-65
2023/08/11 10:21:56;;;;;;;5.65;2.50;;;;;;;;;;4897557;29;20040;-69
2023/08/11 10:24:24;;;;;;;6.30;2.70;;;;;;;;;;4896555;29;20084;-65
2023/08/11 10:26:50;;;;;;;5.30;2.70;;;;;;;;;;4897923;29;20173;-69
2023/08/11 10:29:17;;;;;;;9.10;3.08;;;;;;;;;;4897922;29;20417;-68
2023/08/11 10:31:58;;;;;;;3.83;2.55;;;;;;;;;;4894762;29;20551;-68
2023/08/11 10:34:24;;;;;;;8.05;2.80;;;;;;;;;;4896007;29;20059;-67
2023/08/11 10:36:53;;;;;;;5.63;2.60;;;;;;;;;;4896900;29;20052;-67
2023/08/11 10:39:21;;;;;;;4.78;2.65;;;;;;;;;;4896522;29;20529;-67
2023/08/11 10:41:48;;;;;;;3.53;2.55;;;;;;;;;;4882289;29;20032;-63
2023/08/11 10:44:21;;;;;;;4.50;2.75;;;;;;;;;;4864231;29;20028;-65
2023/08/11 10:46:48;;;;;;;5.88;3.20;;;;;;;;;;4896709;29;20131;-69
2023/08/11 10:49:13;;;;;;;6.82;2.55;;;;;;;;;;4893873;29;20074;-66
2023/08/11 10:51:40;;;;;;;5.97;2.67;;;;;;;;;;4896644;29;20129;-66
2023/08/11 10:54:06;;;;;;;8.23;3.50;;;;;;;;;;4896361;29;20082;-68
2023/08/11 10:56:37;;;;;;;5.05;2.70;;;;;;;;;;4896932;29;20514;-67
2023/08/11 10:59:16;;;;;;;7.53;2.63;;;;;;;;;;4880249;29;20045;-68
2023/08/11 11:01:46;;;;;;;8.35;2.65;;;;;;;;;;4897015;29;20470;-67
2023/08/11 11:04:13;;;;;;;4.57;2.85;;;;;;;;;;4893581;29;20879;-67
2023/08/11 11:06:43;;;;;;;6.38;2.65;;;;;;;;;;4892342;29;20124;-66
2023/08/11 11:09:09;;;;;;;4.13;2.55;;;;;;;;;;4896516;29;20059;-67
2023/08/11 11:11:36;;;;;;;4.47;2.60;;;;;;;;;;4914480;29;20382;-68
2023/08/11 11:14:03;;;;;;;4.53;2.72;;;;;;;;;;4896920;29;20032;-68
2023/08/11 11:16:29;;;;;;;3.28;2.50;;;;;;;;;;4873211;29;20390;-67
2023/08/11 11:18:55;;;;;;;7.65;2.80;;;;;;;;;;4898308;29;20040;-69
2023/08/11 11:21:21;;;;;;;5.30;2.50;;;;;;;;;;4891567;29;20033;-69
2023/08/11 11:23:50;;;;;;;3.38;2.60;;;;;;;;;;4903382;29;20035;-68
2023/08/11 11:26:28;;;;;;;4.15;2.38;;;;;;;;;;4914689;29;20035;-69
2023/08/11 11:28:56;;;;;;;4.97;2.50;;;;;;;;;;4909260;29;20425;-68
2023/08/11 11:31:23;;;;;;;5.10;2.50;;;;;;;;;;4894956;29;20032;-67
2023/08/11 11:33:49;;;;;;;5.15;2.60;;;;;;;;;;4896777;29;20035;-67
2023/08/11 11:36:17;;;;;;;4.38;2.58;;;;;;;;;;4895845;29;20042;-67
2023/08/11 11:38:43;;;;;;;4.22;2.60;;;;;;;;;;4895819;29;20120;-66
2023/08/11 11:41:17;;;;;;;4.97;2.30;;;;;;;;;;4879176;29;20040;-68
2023/08/11 11:43:44;;;;;;;3.40;2.40;;;;;;;;;;4895568;29;20044;-67
2023/08/11 11:46:15;;;;;;;4.45;2.30;;;;;;;;;;4895814;29;20044;-69
2023/08/11 11:48:43;;;;;;;3.22;2.33;;;;;;;;;;4896495;29;20088;-68
2023/08/11 11:51:11;;;;;;;6.47;2.60;;;;;;;;;;4895782;29;20116;-70
2023/08/11 11:53:38;;;;;;;4.57;2.60;;;;;;;;;;4892784;29;20063;-68
2023/08/11 11:56:04;;;;;;;3.25;2.25;;;;;;;;;;4896728;29;20040;-66
2023/08/11 11:58:30;;;;;;;3.50;2.33;;;;;;;;;;4894112;29;20056;-66
2023/08/11 12:00:55;;;;;;;4.82;2.42;;;;;;;;;;4877351;29;20418;-66
2023/08/11 12:03:22;;;;;;;6.05;2.78;;;;;;;;;;4895113;29;20526;-67
2023/08/11 12:05:47;;;;;;;5.28;2.75;;;;;;;;;;4894943;29;20115;-69
2023/08/11 12:08:17;;;;;;;7.57;2.72;;;;;;;;;;4895310;29;20058;-65
2023/08/11 12:10:45;;;;;;;6.80;2.50;;;;;;;;;;4896106;29;20481;-66
2023/08/11 12:13:11;;;;;;;4.75;2.75;;;;;;;;;;4895500;29;20549;-67
2023/08/11 12:15:36;;;;;;;3.90;2.70;;;;;;;;;;4895295;29;20048;-68
2023/08/11 12:18:03;;;;;;;4.95;2.70;;;;;;;;;;4896634;29;20032;-67
2023/08/11 12:20:29;;;;;;;3.08;2.40;;;;;;;;;;4893341;29;20032;-68
2023/08/11 12:22:54;;;;;;;3.38;2.50;;;;;;;;;;4898593;29;20191;-68
2023/08/11 12:25:19;;;;;;;4.07;2.38;;;;;;;;;;4880925;29;20377;-67
2023/08/11 12:27:45;;;;;;;3.90;2.40;;;;;;;;;;4899528;29;20042;-68
2023/08/11 12:30:11;;;;;;;5.38;2.60;;;;;;;;;;4881740;29;20116;-67
2023/08/11 12:32:37;;;;;;;5.38;2.50;;;;;;;;;;4894294;29;20037;-66
2023/08/11 12:35:02;;;;;;;4.40;2.50;;;;;;;;;;4881380;29;20085;-66
2023/08/11 12:37:28;;;;;;;5.07;2.40;;;;;;;;;;4899034;29;20174;-67
2023/08/11 12:39:53;;;;;;;4.35;2.53;;;;;;;;;;4899552;29;20456;-66
2023/08/11 12:42:19;;;;;;;4.82;2.35;;;;;;;;;;4897990;29;20545;-67
2023/08/11 12:44:46;;;;;;;3.78;2.70;;;;;;;;;;4898475;29;20029;-68
2023/08/11 12:47:11;;;;;;;7.15;2.40;;;;;;;;;;4897891;29;20037;-67
2023/08/11 12:49:36;;;;;;;3.45;2.45;;;;;;;;;;4891657;29;20039;-67
2023/08/11 12:52:02;;;;;;;5.97;2.40;;;;;;;;;;4917818;29;20046;-68
2023/08/11 12:54:27;;;;;;;5.55;2.42;;;;;;;;;;4884517;29;20036;-69
2023/08/11 12:56:52;;;;;;;5.38;2.65;;;;;;;;;;4899123;29;20048;-67
2023/08/11 12:59:18;;;;;;;3.92;2.25;;;;;;;;;;4913382;29;20040;-68
2023/08/11 13:01:43;;;;;;;3.53;2.40;;;;;;;;;;4898863;29;20059;-69
2023/08/11 13:04:09;;;;;;;6.07;2.90;;;;;;;;;;4898790;29;20035;-67
2023/08/11 13:06:34;;;;;;;6.55;2.70;;;;;;;;;;4897675;29;20028;-67
2023/08/11 13:09:00;;;;;;;5.00;2.63;;;;;;;;;;4899277;29;20060;-66
2023/08/11 13:11:25;;;;;;;4.90;2.67;;;;;;;;;;4898503;29;20048;-67
2023/08/11 13:13:50;;;;;;;6.75;2.72;;;;;;;;;;4899084;29;20079;-66
2023/08/11 13:16:16;;;;;;;6.55;2.90;;;;;;;;;;4893212;29;20044;-68
2023/08/11 13:18:41;;;;;;;4.78;2.65;;;;;;;;;;4897306;29;20119;-68
2023/08/11 13:21:07;;;;;;;6.38;3.00;;;;;;;;;;4898526;29;20044;-66
2023/08/11 13:23:33;;;;;;;5.50;2.70;;;;;;;;;;4896665;29;20024;-67
2023/08/11 13:25:58;;;;;;;6.05;3.00;;;;;;;;;;4879145;29;20096;-67
2023/08/11 13:28:24;;;;;;;8.10;3.47;;;;;;;;;;4881210;29;20040;-66
2023/08/11 13:30:49;;;;;;;5.45;3.20;;;;;;;;;;4898513;29;20040;-66
2023/08/11 13:33:15;;;;;;;6.35;3.20;;;;;;;;;;4895525;29;20043;-68
2023/08/11 13:35:40;;;;;;;4.50;2.92;;;;;;;;;;4881624;29;20041;-67
2023/08/11 13:38:06;;;;;;;5.68;3.10;;;;;;;;;;4898580;29;20462;-67
2023/08/11 13:40:31;;;;;;;5.25;3.08;;;;;;;;;;4897703;29;20033;-67
2023/08/11 13:42:57;;;;;;;5.53;3.30;;;;;;;;;;4897485;29;20039;-66
2023/08/11 13:45:25;;;;;;;8.60;2.95;;;;;;;;;;4897939;29;20044;-67
2023/08/11 13:47:50;;;;;;;5.70;2.90;;;;;;;;;;4894961;29;20046;-67
2023/08/11 13:50:16;;;;;;;6.80;3.08;;;;;;;;;;4894253;29;20040;-64
2023/08/11 13:52:41;;;;;;;6.05;2.95;;;;;;;;;;4881792;29;20033;-65
2023/08/11 13:55:07;;;;;;;4.40;2.65;;;;;;;;;;4897791;29;20123;-67
2023/08/11 13:57:32;;;;;;;5.65;3.03;;;;;;;;;;4878320;29;20132;-66
2023/08/11 13:59:59;;;;;;;8.32;3.22;;;;;;;;;;4883443;29;20031;-67
2023/08/11 14:02:26;;;;;;;7.70;3.10;;;;;;;;;;4897319;29;20073;-66
2023/08/11 14:04:52;;;;;;;5.20;3.30;;;;;;;;;;4896777;29;20028;-66
2023/08/11 14:07:21;;;;;;;10.23;3.10;;;;;;;;;;4897613;29;20033;-66
2023/08/11 14:09:46;;;;;;;6.57;3.25;;;;;;;;;;4896423;29;20172;-67
2023/08/11 14:12:14;;;;;;;11.55;3.20;;;;;;;;;;4896689;29;20119;-67
2023/08/11 14:14:39;;;;;;;6.22;3.30;;;;;;;;;;4896296;29;20044;-66
2023/08/11 14:17:04;;;;;;;6.32;2.88;;;;;;;;;;4897215;29;20044;-67
2023/08/11 14:19:30;;;;;;;5.50;3.20;;;;;;;;;;4897090;29;20758;-66
2023/08/11 14:21:55;;;;;;;6.45;3.05;;;;;;;;;;4896312;29;20036;-66
2023/08/11 14:24:23;;;;;;;7.40;3.03;;;;;;;;;;4896978;29;20458;-68
2023/08/11 14:26:49;;;;;;;8.93;3.00;;;;;;;;;;4897766;29;20478;-65
2023/08/11 14:29:14;;;;;;;5.60;3.03;;;;;;;;;;4896335;29;20035;-69
2023/08/11 14:31:40;;;;;;;6.15;2.83;;;;;;;;;;4878573;29;20079;-66
2023/08/11 14:34:05;;;;;;;7.82;3.22;;;;;;;;;;4896956;29;20032;-65
2023/08/11 14:36:30;;;;;;;6.85;2.92;;;;;;;;;;4896478;29;20606;-68